sensor_id;sensor_type;location;lat;lon;timestamp;P1;durP1;ratioP1;P2;durP2;ratioP2
68633;SDS011;55625;47.072;22.192;2022-11-12T00:00:51;16.42;;;7.20;;
68633;SDS011;55625;47.072;22.192;2022-11-12T00:03:18;11.20;;;6.50;;
68633;SDS011;55625;47.072;22.192;2022-11-12T00:05:44;12.60;;;6.70;;
68633;SDS011;55625;47.072;22.192;2022-11-12T00:08:10;13.05;;;8.10;;
68633;SDS011;55625;47.072;22.192;2022-11-12T00:10:37;13.20;;;6.97;;
68633;SDS011;55625;47.072;22.192;2022-11-12T00:13:03;14.95;;;6.40;;
68633;SDS011;55625;47.072;22.192;2022-11-12T00:15:29;15.43;;;7.53;;
68633;SDS011;55625;47.072;22.192;2022-11-12T00:17:55;15.40;;;8.20;;
68633;SDS011;55625;47.072;22.192;2022-11-12T00:20:21;13.35;;;7.05;;
68633;SDS011;55625;47.072;22.192;2022-11-12T00:22:46;12.63;;;6.70;;
68633;SDS011;55625;47.072;22.192;2022-11-12T00:25:12;12.65;;;6.80;;
68633;SDS011;55625;47.072;22.192;2022-11-12T00:27:38;12.13;;;6.40;;
68633;SDS011;55625;47.072;22.192;2022-11-12T00:30:04;18.20;;;6.63;;
68633;SDS011;55625;47.072;22.192;2022-11-12T00:32:31;12.75;;;7.15;;
68633;SDS011;55625;47.072;22.192;2022-11-12T00:34:59;13.52;;;7.65;;
68633;SDS011;55625;47.072;22.192;2022-11-12T00:37:25;15.20;;;7.32;;
68633;SDS011;55625;47.072;22.192;2022-11-12T00:39:51;21.03;;;8.70;;
68633;SDS011;55625;47.072;22.192;2022-11-12T00:42:16;15.70;;;8.77;;
68633;SDS011;55625;47.072;22.192;2022-11-12T00:44:42;16.33;;;8.17;;
68633;SDS011;55625;47.072;22.192;2022-11-12T00:47:08;15.00;;;7.72;;
68633;SDS011;55625;47.072;22.192;2022-11-12T00:49:34;12.68;;;6.55;;
68633;SDS011;55625;47.072;22.192;2022-11-12T00:52:00;11.07;;;5.13;;
68633;SDS011;55625;47.072;22.192;2022-11-12T00:54:26;15.35;;;6.30;;
68633;SDS011;55625;47.072;22.192;2022-11-12T00:56:51;11.30;;;6.82;;
68633;SDS011;55625;47.072;22.192;2022-11-12T00:59:17;11.73;;;5.37;;
68633;SDS011;55625;47.072;22.192;2022-11-12T01:01:43;11.07;;;5.45;;
68633;SDS011;55625;47.072;22.192;2022-11-12T01:04:09;11.15;;;7.00;;
68633;SDS011;55625;47.072;22.192;2022-11-12T01:06:37;14.53;;;7.13;;
68633;SDS011;55625;47.072;22.192;2022-11-12T01:09:07;7.82;;;3.95;;
68633;SDS011;55625;47.072;22.192;2022-11-12T01:11:34;11.52;;;5.35;;
68633;SDS011;55625;47.072;22.192;2022-11-12T01:14:04;12.05;;;4.55;;
68633;SDS011;55625;47.072;22.192;2022-11-12T01:16:37;13.65;;;6.43;;
68633;SDS011;55625;47.072;22.192;2022-11-12T01:19:05;7.27;;;4.60;;
68633;SDS011;55625;47.072;22.192;2022-11-12T01:21:37;13.25;;;3.88;;
68633;SDS011;55625;47.072;22.192;2022-11-12T01:24:05;9.65;;;4.57;;
68633;SDS011;55625;47.072;22.192;2022-11-12T01:26:32;8.82;;;5.28;;
68633;SDS011;55625;47.072;22.192;2022-11-12T01:28:58;15.68;;;5.57;;
68633;SDS011;55625;47.072;22.192;2022-11-12T01:31:28;12.67;;;5.33;;
68633;SDS011;55625;47.072;22.192;2022-11-12T01:33:58;22.40;;;5.90;;
68633;SDS011;55625;47.072;22.192;2022-11-12T01:36:27;9.00;;;4.85;;
68633;SDS011;55625;47.072;22.192;2022-11-12T01:38:56;13.32;;;5.47;;
68633;SDS011;55625;47.072;22.192;2022-11-12T01:41:23;10.07;;;4.77;;
68633;SDS011;55625;47.072;22.192;2022-11-12T01:46:57;10.00;;;4.07;;
68633;SDS011;55625;47.072;22.192;2022-11-12T01:49:41;7.50;;;4.43;;
68633;SDS011;55625;47.072;22.192;2022-11-12T01:55:09;9.75;;;6.03;;
68633;SDS011;55625;47.072;22.192;2022-11-12T01:57:42;17.90;;;4.88;;
68633;SDS011;55625;47.072;22.192;2022-11-12T02:00:18;16.10;;;5.00;;
68633;SDS011;55625;47.072;22.192;2022-11-12T02:02:45;13.68;;;6.03;;
68633;SDS011;55625;47.072;22.192;2022-11-12T02:05:35;15.83;;;4.77;;
68633;SDS011;55625;47.072;22.192;2022-11-12T02:08:03;13.60;;;5.70;;
68633;SDS011;55625;47.072;22.192;2022-11-12T02:10:31;8.25;;;5.00;;
68633;SDS011;55625;47.072;22.192;2022-11-12T02:12:59;11.98;;;4.68;;
68633;SDS011;55625;47.072;22.192;2022-11-12T02:15:44;9.57;;;4.47;;
68633;SDS011;55625;47.072;22.192;2022-11-12T02:18:10;9.23;;;3.53;;
68633;SDS011;55625;47.072;22.192;2022-11-12T02:20:36;11.93;;;4.90;;
68633;SDS011;55625;47.072;22.192;2022-11-12T02:23:04;7.13;;;5.07;;
68633;SDS011;55625;47.072;22.192;2022-11-12T02:25:31;16.10;;;5.93;;
68633;SDS011;55625;47.072;22.192;2022-11-12T02:27:57;11.40;;;5.57;;
68633;SDS011;55625;47.072;22.192;2022-11-12T02:30:41;11.40;;;5.68;;
68633;SDS011;55625;47.072;22.192;2022-11-12T02:33:10;10.30;;;5.10;;
68633;SDS011;55625;47.072;22.192;2022-11-12T02:35:36;10.80;;;6.00;;
68633;SDS011;55625;47.072;22.192;2022-11-12T02:38:02;13.37;;;5.23;;
68633;SDS011;55625;47.072;22.192;2022-11-12T02:40:29;11.30;;;7.85;;
68633;SDS011;55625;47.072;22.192;2022-11-12T02:42:55;10.52;;;5.97;;
68633;SDS011;55625;47.072;22.192;2022-11-12T02:45:21;11.48;;;5.63;;
68633;SDS011;55625;47.072;22.192;2022-11-12T02:47:47;15.55;;;5.82;;
68633;SDS011;55625;47.072;22.192;2022-11-12T02:50:13;7.60;;;5.07;;
68633;SDS011;55625;47.072;22.192;2022-11-12T02:52:39;10.40;;;4.85;;
68633;SDS011;55625;47.072;22.192;2022-11-12T02:55:06;8.93;;;3.65;;
68633;SDS011;55625;47.072;22.192;2022-11-12T02:57:34;13.00;;;5.30;;
68633;SDS011;55625;47.072;22.192;2022-11-12T03:00:02;10.57;;;5.20;;
68633;SDS011;55625;47.072;22.192;2022-11-12T03:02:30;8.52;;;5.13;;
68633;SDS011;55625;47.072;22.192;2022-11-12T03:04:56;12.73;;;4.85;;
68633;SDS011;55625;47.072;22.192;2022-11-12T03:07:21;10.37;;;4.00;;
68633;SDS011;55625;47.072;22.192;2022-11-12T03:09:47;9.67;;;5.00;;
68633;SDS011;55625;47.072;22.192;2022-11-12T03:12:13;11.63;;;5.60;;
68633;SDS011;55625;47.072;22.192;2022-11-12T03:14:39;12.03;;;4.67;;
68633;SDS011;55625;47.072;22.192;2022-11-12T03:17:05;11.87;;;5.13;;
68633;SDS011;55625;47.072;22.192;2022-11-12T03:19:30;8.10;;;5.50;;
68633;SDS011;55625;47.072;22.192;2022-11-12T03:21:56;12.77;;;6.03;;
68633;SDS011;55625;47.072;22.192;2022-11-12T03:24:22;13.40;;;5.68;;
68633;SDS011;55625;47.072;22.192;2022-11-12T03:26:48;9.30;;;4.25;;
68633;SDS011;55625;47.072;22.192;2022-11-12T03:29:14;8.97;;;4.87;;
68633;SDS011;55625;47.072;22.192;2022-11-12T03:31:39;9.45;;;4.45;;
68633;SDS011;55625;47.072;22.192;2022-11-12T03:34:05;14.77;;;4.82;;
68633;SDS011;55625;47.072;22.192;2022-11-12T03:36:31;18.00;;;3.83;;
68633;SDS011;55625;47.072;22.192;2022-11-12T03:38:57;8.38;;;3.08;;
68633;SDS011;55625;47.072;22.192;2022-11-12T03:41:23;8.00;;;3.83;;
68633;SDS011;55625;47.072;22.192;2022-11-12T03:43:49;8.07;;;4.63;;
68633;SDS011;55625;47.072;22.192;2022-11-12T03:46:14;12.77;;;5.53;;
68633;SDS011;55625;47.072;22.192;2022-11-12T03:48:40;10.27;;;3.85;;
68633;SDS011;55625;47.072;22.192;2022-11-12T03:51:06;8.23;;;3.50;;
68633;SDS011;55625;47.072;22.192;2022-11-12T03:53:32;9.75;;;5.13;;
68633;SDS011;55625;47.072;22.192;2022-11-12T03:55:58;12.07;;;5.13;;
68633;SDS011;55625;47.072;22.192;2022-11-12T03:58:23;15.70;;;5.32;;
68633;SDS011;55625;47.072;22.192;2022-11-12T04:00:49;8.13;;;3.95;;
68633;SDS011;55625;47.072;22.192;2022-11-12T04:03:15;9.25;;;4.38;;
68633;SDS011;55625;47.072;22.192;2022-11-12T04:05:41;11.60;;;4.03;;
68633;SDS011;55625;47.072;22.192;2022-11-12T04:08:25;8.85;;;3.30;;
68633;SDS011;55625;47.072;22.192;2022-11-12T04:13:37;15.80;;;5.43;;
68633;SDS011;55625;47.072;22.192;2022-11-12T04:18:54;14.88;;;4.50;;
68633;SDS011;55625;47.072;22.192;2022-11-12T04:21:42;12.10;;;3.78;;
68633;SDS011;55625;47.072;22.192;2022-11-12T04:24:24;10.63;;;3.60;;
68633;SDS011;55625;47.072;22.192;2022-11-12T04:27:23;6.03;;;2.92;;
68633;SDS011;55625;47.072;22.192;2022-11-12T04:29:58;8.03;;;4.23;;
68633;SDS011;55625;47.072;22.192;2022-11-12T04:32:53;13.30;;;3.67;;
68633;SDS011;55625;47.072;22.192;2022-11-12T04:35:21;15.73;;;4.35;;
68633;SDS011;55625;47.072;22.192;2022-11-12T04:37:51;14.63;;;5.22;;
68633;SDS011;55625;47.072;22.192;2022-11-12T04:40:26;10.30;;;5.93;;
68633;SDS011;55625;47.072;22.192;2022-11-12T04:43:11;10.67;;;5.87;;
68633;SDS011;55625;47.072;22.192;2022-11-12T04:46:18;10.50;;;4.00;;
68633;SDS011;55625;47.072;22.192;2022-11-12T04:48:44;17.90;;;5.85;;
68633;SDS011;55625;47.072;22.192;2022-11-12T04:51:10;19.27;;;6.00;;
68633;SDS011;55625;47.072;22.192;2022-11-12T04:53:55;16.13;;;5.43;;
68633;SDS011;55625;47.072;22.192;2022-11-12T04:56:20;14.65;;;7.05;;
68633;SDS011;55625;47.072;22.192;2022-11-12T04:58:46;15.80;;;5.07;;
68633;SDS011;55625;47.072;22.192;2022-11-12T05:01:12;11.77;;;5.55;;
68633;SDS011;55625;47.072;22.192;2022-11-12T05:03:38;9.02;;;3.85;;
68633;SDS011;55625;47.072;22.192;2022-11-12T05:06:04;9.20;;;4.70;;
68633;SDS011;55625;47.072;22.192;2022-11-12T05:08:51;21.30;;;3.75;;
68633;SDS011;55625;47.072;22.192;2022-11-12T05:11:16;12.48;;;4.82;;
68633;SDS011;55625;47.072;22.192;2022-11-12T05:13:42;14.90;;;5.83;;
68633;SDS011;55625;47.072;22.192;2022-11-12T05:16:08;16.77;;;4.95;;
68633;SDS011;55625;47.072;22.192;2022-11-12T05:18:34;14.67;;;6.43;;
68633;SDS011;55625;47.072;22.192;2022-11-12T05:20:59;10.67;;;4.43;;
68633;SDS011;55625;47.072;22.192;2022-11-12T05:23:45;5.88;;;4.30;;
68633;SDS011;55625;47.072;22.192;2022-11-12T05:26:11;13.73;;;5.27;;
68633;SDS011;55625;47.072;22.192;2022-11-12T05:28:37;14.50;;;4.97;;
68633;SDS011;55625;47.072;22.192;2022-11-12T05:31:03;8.65;;;4.65;;
68633;SDS011;55625;47.072;22.192;2022-11-12T05:33:28;19.83;;;7.57;;
68633;SDS011;55625;47.072;22.192;2022-11-12T05:35:55;11.65;;;6.65;;
68633;SDS011;55625;47.072;22.192;2022-11-12T05:38:21;11.00;;;6.03;;
68633;SDS011;55625;47.072;22.192;2022-11-12T05:40:47;9.63;;;5.13;;
68633;SDS011;55625;47.072;22.192;2022-11-12T05:43:13;24.23;;;8.07;;
68633;SDS011;55625;47.072;22.192;2022-11-12T05:45:41;12.05;;;6.80;;
68633;SDS011;55625;47.072;22.192;2022-11-12T05:48:07;20.27;;;6.17;;
68633;SDS011;55625;47.072;22.192;2022-11-12T05:50:33;10.88;;;5.10;;
68633;SDS011;55625;47.072;22.192;2022-11-12T05:52:59;15.23;;;6.15;;
68633;SDS011;55625;47.072;22.192;2022-11-12T05:55:25;13.77;;;5.90;;
68633;SDS011;55625;47.072;22.192;2022-11-12T05:57:51;11.90;;;5.95;;
68633;SDS011;55625;47.072;22.192;2022-11-12T06:00:16;16.75;;;8.63;;
68633;SDS011;55625;47.072;22.192;2022-11-12T06:02:42;15.93;;;8.33;;
68633;SDS011;55625;47.072;22.192;2022-11-12T06:05:08;15.93;;;9.68;;
68633;SDS011;55625;47.072;22.192;2022-11-12T06:07:34;21.23;;;15.07;;
68633;SDS011;55625;47.072;22.192;2022-11-12T06:10:00;32.13;;;17.70;;
68633;SDS011;55625;47.072;22.192;2022-11-12T06:12:26;32.20;;;19.02;;
68633;SDS011;55625;47.072;22.192;2022-11-12T06:14:52;22.98;;;14.55;;
68633;SDS011;55625;47.072;22.192;2022-11-12T06:17:17;40.60;;;11.23;;
68633;SDS011;55625;47.072;22.192;2022-11-12T06:19:43;22.45;;;11.30;;
68633;SDS011;55625;47.072;22.192;2022-11-12T06:22:09;26.60;;;13.17;;
68633;SDS011;55625;47.072;22.192;2022-11-12T06:24:35;26.33;;;10.60;;
68633;SDS011;55625;47.072;22.192;2022-11-12T06:27:00;21.48;;;9.00;;
68633;SDS011;55625;47.072;22.192;2022-11-12T06:29:26;27.57;;;14.00;;
68633;SDS011;55625;47.072;22.192;2022-11-12T06:31:54;20.10;;;12.32;;
68633;SDS011;55625;47.072;22.192;2022-11-12T06:34:19;14.02;;;7.95;;
68633;SDS011;55625;47.072;22.192;2022-11-12T06:36:45;21.83;;;10.07;;
68633;SDS011;55625;47.072;22.192;2022-11-12T06:39:12;27.08;;;8.88;;
68633;SDS011;55625;47.072;22.192;2022-11-12T06:41:38;14.13;;;7.28;;
68633;SDS011;55625;47.072;22.192;2022-11-12T06:44:04;12.40;;;6.30;;
68633;SDS011;55625;47.072;22.192;2022-11-12T06:46:30;11.47;;;5.30;;
68633;SDS011;55625;47.072;22.192;2022-11-12T06:48:56;10.25;;;6.20;;
68633;SDS011;55625;47.072;22.192;2022-11-12T06:51:22;15.88;;;6.93;;
68633;SDS011;55625;47.072;22.192;2022-11-12T06:53:49;10.73;;;5.83;;
68633;SDS011;55625;47.072;22.192;2022-11-12T06:56:15;9.50;;;4.82;;
68633;SDS011;55625;47.072;22.192;2022-11-12T06:58:42;14.73;;;5.22;;
68633;SDS011;55625;47.072;22.192;2022-11-12T07:01:12;10.48;;;5.40;;
68633;SDS011;55625;47.072;22.192;2022-11-12T07:03:41;16.27;;;5.82;;
68633;SDS011;55625;47.072;22.192;2022-11-12T07:06:12;19.63;;;7.27;;
68633;SDS011;55625;47.072;22.192;2022-11-12T07:08:43;17.20;;;8.80;;
68633;SDS011;55625;47.072;22.192;2022-11-12T07:11:09;12.27;;;5.80;;
68633;SDS011;55625;47.072;22.192;2022-11-12T07:13:35;25.50;;;6.68;;
68633;SDS011;55625;47.072;22.192;2022-11-12T07:16:02;15.00;;;5.00;;
68633;SDS011;55625;47.072;22.192;2022-11-12T07:18:30;10.77;;;5.18;;
68633;SDS011;55625;47.072;22.192;2022-11-12T07:20:59;9.63;;;4.45;;
68633;SDS011;55625;47.072;22.192;2022-11-12T07:23:27;12.48;;;6.05;;
68633;SDS011;55625;47.072;22.192;2022-11-12T07:25:56;15.38;;;4.13;;
68633;SDS011;55625;47.072;22.192;2022-11-12T07:28:30;9.90;;;5.17;;
68633;SDS011;55625;47.072;22.192;2022-11-12T07:30:57;9.77;;;5.43;;
68633;SDS011;55625;47.072;22.192;2022-11-12T07:33:28;14.88;;;5.20;;
68633;SDS011;55625;47.072;22.192;2022-11-12T07:38:26;10.52;;;5.32;;
68633;SDS011;55625;47.072;22.192;2022-11-12T07:40:57;11.87;;;5.63;;
68633;SDS011;55625;47.072;22.192;2022-11-12T07:43:29;9.88;;;4.32;;
68633;SDS011;55625;47.072;22.192;2022-11-12T07:45:58;15.20;;;5.90;;
68633;SDS011;55625;47.072;22.192;2022-11-12T07:48:25;19.60;;;4.70;;
68633;SDS011;55625;47.072;22.192;2022-11-12T07:53:31;9.63;;;4.40;;
68633;SDS011;55625;47.072;22.192;2022-11-12T07:55:58;8.80;;;3.70;;
68633;SDS011;55625;47.072;22.192;2022-11-12T07:58:26;9.13;;;4.45;;
68633;SDS011;55625;47.072;22.192;2022-11-12T08:00:55;11.88;;;4.25;;
68633;SDS011;55625;47.072;22.192;2022-11-12T08:03:21;9.10;;;3.93;;
68633;SDS011;55625;47.072;22.192;2022-11-12T08:05:47;13.82;;;4.07;;
68633;SDS011;55625;47.072;22.192;2022-11-12T08:08:13;9.20;;;3.92;;
68633;SDS011;55625;47.072;22.192;2022-11-12T08:10:39;30.08;;;8.52;;
68633;SDS011;55625;47.072;22.192;2022-11-12T08:13:05;10.70;;;3.70;;
68633;SDS011;55625;47.072;22.192;2022-11-12T08:15:31;9.40;;;3.45;;
68633;SDS011;55625;47.072;22.192;2022-11-12T08:17:57;7.53;;;3.90;;
68633;SDS011;55625;47.072;22.192;2022-11-12T08:20:23;12.10;;;4.57;;
68633;SDS011;55625;47.072;22.192;2022-11-12T08:22:49;6.20;;;2.77;;
68633;SDS011;55625;47.072;22.192;2022-11-12T08:25:15;18.10;;;5.23;;
68633;SDS011;55625;47.072;22.192;2022-11-12T08:27:42;13.27;;;5.82;;
68633;SDS011;55625;47.072;22.192;2022-11-12T08:30:08;10.93;;;3.33;;
68633;SDS011;55625;47.072;22.192;2022-11-12T08:32:35;18.08;;;4.97;;
68633;SDS011;55625;47.072;22.192;2022-11-12T08:35:01;14.30;;;4.60;;
68633;SDS011;55625;47.072;22.192;2022-11-12T08:37:27;11.75;;;4.43;;
68633;SDS011;55625;47.072;22.192;2022-11-12T08:39:52;12.17;;;4.57;;
68633;SDS011;55625;47.072;22.192;2022-11-12T08:42:18;12.97;;;4.57;;
68633;SDS011;55625;47.072;22.192;2022-11-12T08:44:44;11.30;;;4.85;;
68633;SDS011;55625;47.072;22.192;2022-11-12T08:47:10;14.83;;;4.17;;
68633;SDS011;55625;47.072;22.192;2022-11-12T08:49:35;12.32;;;5.75;;
68633;SDS011;55625;47.072;22.192;2022-11-12T08:52:01;7.22;;;3.78;;
68633;SDS011;55625;47.072;22.192;2022-11-12T08:54:27;11.53;;;5.87;;
68633;SDS011;55625;47.072;22.192;2022-11-12T08:56:54;18.00;;;7.53;;
68633;SDS011;55625;47.072;22.192;2022-11-12T08:59:20;11.57;;;5.18;;
68633;SDS011;55625;47.072;22.192;2022-11-12T09:01:45;13.40;;;6.47;;
68633;SDS011;55625;47.072;22.192;2022-11-12T09:04:11;9.27;;;4.40;;
68633;SDS011;55625;47.072;22.192;2022-11-12T09:06:37;11.30;;;4.50;;
68633;SDS011;55625;47.072;22.192;2022-11-12T09:09:03;13.90;;;3.53;;
68633;SDS011;55625;47.072;22.192;2022-11-12T09:11:29;9.38;;;3.53;;
68633;SDS011;55625;47.072;22.192;2022-11-12T09:13:55;20.17;;;6.93;;
68633;SDS011;55625;47.072;22.192;2022-11-12T09:16:20;9.60;;;3.93;;
68633;SDS011;55625;47.072;22.192;2022-11-12T09:18:48;8.20;;;3.83;;
68633;SDS011;55625;47.072;22.192;2022-11-12T09:21:13;7.53;;;2.90;;
68633;SDS011;55625;47.072;22.192;2022-11-12T09:23:39;10.37;;;3.87;;
68633;SDS011;55625;47.072;22.192;2022-11-12T09:26:05;8.57;;;3.95;;
68633;SDS011;55625;47.072;22.192;2022-11-12T09:28:31;11.25;;;3.38;;
68633;SDS011;55625;47.072;22.192;2022-11-12T09:30:57;8.00;;;4.30;;
68633;SDS011;55625;47.072;22.192;2022-11-12T09:33:29;7.23;;;3.43;;
68633;SDS011;55625;47.072;22.192;2022-11-12T09:35:59;8.98;;;3.70;;
68633;SDS011;55625;47.072;22.192;2022-11-12T09:38:26;6.28;;;2.03;;
68633;SDS011;55625;47.072;22.192;2022-11-12T09:44:01;6.95;;;3.58;;
68633;SDS011;55625;47.072;22.192;2022-11-12T09:46:45;6.80;;;1.60;;
68633;SDS011;55625;47.072;22.192;2022-11-12T09:49:22;8.77;;;2.53;;
68633;SDS011;55625;47.072;22.192;2022-11-12T09:52:03;10.43;;;2.50;;
68633;SDS011;55625;47.072;22.192;2022-11-12T09:54:45;6.88;;;2.15;;
68633;SDS011;55625;47.072;22.192;2022-11-12T09:57:21;4.32;;;1.15;;
68633;SDS011;55625;47.072;22.192;2022-11-12T09:59:47;7.27;;;2.27;;
68633;SDS011;55625;47.072;22.192;2022-11-12T10:02:34;4.57;;;2.17;;
68633;SDS011;55625;47.072;22.192;2022-11-12T10:05:18;6.10;;;2.55;;
68633;SDS011;55625;47.072;22.192;2022-11-12T10:11:06;4.70;;;2.03;;
68633;SDS011;55625;47.072;22.192;2022-11-12T10:17:31;4.97;;;1.63;;
68633;SDS011;55625;47.072;22.192;2022-11-12T10:25:31;5.87;;;2.33;;
68633;SDS011;55625;47.072;22.192;2022-11-12T10:27:59;6.43;;;2.15;;
68633;SDS011;55625;47.072;22.192;2022-11-12T10:30:46;5.53;;;2.45;;
68633;SDS011;55625;47.072;22.192;2022-11-12T10:33:13;6.18;;;2.60;;
68633;SDS011;55625;47.072;22.192;2022-11-12T10:35:39;7.33;;;3.43;;
68633;SDS011;55625;47.072;22.192;2022-11-12T10:38:06;9.55;;;3.88;;
68633;SDS011;55625;47.072;22.192;2022-11-12T10:40:40;5.65;;;3.13;;
68633;SDS011;55625;47.072;22.192;2022-11-12T10:45:42;7.18;;;2.38;;
68633;SDS011;55625;47.072;22.192;2022-11-12T10:48:22;7.00;;;2.93;;
68633;SDS011;55625;47.072;22.192;2022-11-12T10:50:54;6.85;;;2.33;;
68633;SDS011;55625;47.072;22.192;2022-11-12T10:56:02;6.75;;;2.22;;
68633;SDS011;55625;47.072;22.192;2022-11-12T10:59:08;14.40;;;7.90;;
68633;SDS011;55625;47.072;22.192;2022-11-12T11:01:43;5.17;;;2.20;;
68633;SDS011;55625;47.072;22.192;2022-11-12T11:04:14;6.43;;;1.83;;
68633;SDS011;55625;47.072;22.192;2022-11-12T11:07:04;9.07;;;3.40;;
68633;SDS011;55625;47.072;22.192;2022-11-12T11:09:52;11.05;;;2.55;;
68633;SDS011;55625;47.072;22.192;2022-11-12T11:12:29;5.60;;;2.20;;
68633;SDS011;55625;47.072;22.192;2022-11-12T11:15:05;5.27;;;1.60;;
68633;SDS011;55625;47.072;22.192;2022-11-12T11:17:35;8.50;;;1.83;;
68633;SDS011;55625;47.072;22.192;2022-11-12T11:20:02;8.30;;;3.92;;
68633;SDS011;55625;47.072;22.192;2022-11-12T11:22:56;10.98;;;4.03;;
68633;SDS011;55625;47.072;22.192;2022-11-12T11:25:27;7.63;;;2.50;;
68633;SDS011;55625;47.072;22.192;2022-11-12T11:30:47;8.73;;;1.88;;
68633;SDS011;55625;47.072;22.192;2022-11-12T11:36:18;5.38;;;2.45;;
68633;SDS011;55625;47.072;22.192;2022-11-12T11:39:00;7.25;;;2.75;;
68633;SDS011;55625;47.072;22.192;2022-11-12T11:50:24;7.93;;;2.25;;
68633;SDS011;55625;47.072;22.192;2022-11-12T11:55:44;6.17;;;2.27;;
68633;SDS011;55625;47.072;22.192;2022-11-12T11:58:48;4.68;;;1.60;;
68633;SDS011;55625;47.072;22.192;2022-11-12T12:13:02;5.63;;;2.40;;
68633;SDS011;55625;47.072;22.192;2022-11-12T12:22:12;4.50;;;1.40;;
68633;SDS011;55625;47.072;22.192;2022-11-12T12:24:49;8.73;;;2.50;;
68633;SDS011;55625;47.072;22.192;2022-11-12T12:27:33;5.97;;;2.15;;
68633;SDS011;55625;47.072;22.192;2022-11-12T12:36:14;7.57;;;2.28;;
68633;SDS011;55625;47.072;22.192;2022-11-12T12:38:45;4.67;;;2.03;;
68633;SDS011;55625;47.072;22.192;2022-11-12T12:41:26;6.97;;;3.05;;
68633;SDS011;55625;47.072;22.192;2022-11-12T12:44:08;4.68;;;2.05;;
68633;SDS011;55625;47.072;22.192;2022-11-12T12:46:39;6.90;;;1.70;;
68633;SDS011;55625;47.072;22.192;2022-11-12T12:49:13;4.53;;;1.42;;
68633;SDS011;55625;47.072;22.192;2022-11-12T12:51:47;11.00;;;2.80;;
68633;SDS011;55625;47.072;22.192;2022-11-12T13:02:57;5.67;;;1.37;;
68633;SDS011;55625;47.072;22.192;2022-11-12T13:05:24;6.32;;;1.88;;
68633;SDS011;55625;47.072;22.192;2022-11-12T13:07:53;5.35;;;1.88;;
68633;SDS011;55625;47.072;22.192;2022-11-12T13:15:53;9.00;;;2.87;;
68633;SDS011;55625;47.072;22.192;2022-11-12T13:35:13;9.25;;;3.05;;
68633;SDS011;55625;47.072;22.192;2022-11-12T13:37:51;11.32;;;3.45;;
68633;SDS011;55625;47.072;22.192;2022-11-12T13:40:49;7.82;;;1.42;;
68633;SDS011;55625;47.072;22.192;2022-11-12T13:43:42;3.50;;;1.77;;
68633;SDS011;55625;47.072;22.192;2022-11-12T13:46:17;4.32;;;1.55;;
68633;SDS011;55625;47.072;22.192;2022-11-12T13:48:58;8.20;;;3.15;;
68633;SDS011;55625;47.072;22.192;2022-11-12T13:51:44;15.98;;;2.30;;
68633;SDS011;55625;47.072;22.192;2022-11-12T13:54:23;5.38;;;1.80;;
68633;SDS011;55625;47.072;22.192;2022-11-12T14:00:06;4.78;;;2.05;;
68633;SDS011;55625;47.072;22.192;2022-11-12T14:02:41;6.57;;;1.88;;
68633;SDS011;55625;47.072;22.192;2022-11-12T14:05:12;4.50;;;1.58;;
68633;SDS011;55625;47.072;22.192;2022-11-12T14:10:54;7.93;;;2.90;;
68633;SDS011;55625;47.072;22.192;2022-11-12T14:22:39;12.18;;;4.20;;
68633;SDS011;55625;47.072;22.192;2022-11-12T14:27:54;46.17;;;15.82;;
68633;SDS011;55625;47.072;22.192;2022-11-12T14:30:23;44.58;;;17.02;;
68633;SDS011;55625;47.072;22.192;2022-11-12T14:33:00;53.60;;;16.10;;
68633;SDS011;55625;47.072;22.192;2022-11-12T14:40:43;23.63;;;9.20;;
68633;SDS011;55625;47.072;22.192;2022-11-12T14:43:23;19.60;;;6.70;;
68633;SDS011;55625;47.072;22.192;2022-11-12T14:45:54;21.02;;;6.15;;
68633;SDS011;55625;47.072;22.192;2022-11-12T14:48:22;7.68;;;4.10;;
68633;SDS011;55625;47.072;22.192;2022-11-12T14:50:49;12.03;;;4.43;;
68633;SDS011;55625;47.072;22.192;2022-11-12T14:53:25;14.80;;;4.28;;
68633;SDS011;55625;47.072;22.192;2022-11-12T14:56:03;14.68;;;5.97;;
68633;SDS011;55625;47.072;22.192;2022-11-12T14:58:33;11.15;;;5.47;;
68633;SDS011;55625;47.072;22.192;2022-11-12T15:01:16;11.15;;;4.78;;
68633;SDS011;55625;47.072;22.192;2022-11-12T15:03:50;11.23;;;4.57;;
68633;SDS011;55625;47.072;22.192;2022-11-12T15:06:28;12.27;;;4.93;;
68633;SDS011;55625;47.072;22.192;2022-11-12T15:08:57;18.60;;;5.97;;
68633;SDS011;55625;47.072;22.192;2022-11-12T15:11:25;15.60;;;6.45;;
68633;SDS011;55625;47.072;22.192;2022-11-12T15:13:54;22.98;;;9.45;;
68633;SDS011;55625;47.072;22.192;2022-11-12T15:16:26;72.37;;;25.83;;
68633;SDS011;55625;47.072;22.192;2022-11-12T15:21:37;78.78;;;26.27;;
68633;SDS011;55625;47.072;22.192;2022-11-12T15:27:26;39.00;;;15.40;;
68633;SDS011;55625;47.072;22.192;2022-11-12T15:30:11;37.53;;;14.03;;
68633;SDS011;55625;47.072;22.192;2022-11-12T15:33:06;42.75;;;13.63;;
68633;SDS011;55625;47.072;22.192;2022-11-12T15:35:36;26.90;;;11.10;;
68633;SDS011;55625;47.072;22.192;2022-11-12T15:41:02;46.00;;;22.10;;
68633;SDS011;55625;47.072;22.192;2022-11-12T15:43:34;37.90;;;18.87;;
68633;SDS011;55625;47.072;22.192;2022-11-12T15:46:00;50.28;;;23.15;;
68633;SDS011;55625;47.072;22.192;2022-11-12T15:48:26;69.57;;;23.52;;
68633;SDS011;55625;47.072;22.192;2022-11-12T15:50:52;55.55;;;24.42;;
68633;SDS011;55625;47.072;22.192;2022-11-12T15:53:18;61.95;;;26.17;;
68633;SDS011;55625;47.072;22.192;2022-11-12T15:55:44;54.37;;;23.57;;
68633;SDS011;55625;47.072;22.192;2022-11-12T15:58:16;65.15;;;29.98;;
68633;SDS011;55625;47.072;22.192;2022-11-12T16:00:51;62.20;;;25.15;;
68633;SDS011;55625;47.072;22.192;2022-11-12T16:03:18;78.57;;;28.80;;
68633;SDS011;55625;47.072;22.192;2022-11-12T16:05:46;76.70;;;29.47;;
68633;SDS011;55625;47.072;22.192;2022-11-12T16:08:15;69.88;;;26.85;;
68633;SDS011;55625;47.072;22.192;2022-11-12T16:10:42;64.22;;;28.42;;
68633;SDS011;55625;47.072;22.192;2022-11-12T16:13:17;71.63;;;30.45;;
68633;SDS011;55625;47.072;22.192;2022-11-12T16:15:51;81.53;;;31.50;;
68633;SDS011;55625;47.072;22.192;2022-11-12T16:18:17;72.87;;;32.60;;
68633;SDS011;55625;47.072;22.192;2022-11-12T16:20:43;73.82;;;29.05;;
68633;SDS011;55625;47.072;22.192;2022-11-12T16:23:09;83.97;;;31.48;;
68633;SDS011;55625;47.072;22.192;2022-11-12T16:25:35;99.00;;;31.90;;
68633;SDS011;55625;47.072;22.192;2022-11-12T16:28:03;82.65;;;30.40;;
68633;SDS011;55625;47.072;22.192;2022-11-12T16:30:39;88.47;;;31.27;;
68633;SDS011;55625;47.072;22.192;2022-11-12T16:33:05;76.18;;;26.98;;
68633;SDS011;55625;47.072;22.192;2022-11-12T16:35:34;55.33;;;24.00;;
68633;SDS011;55625;47.072;22.192;2022-11-12T16:38:00;57.63;;;24.27;;
68633;SDS011;55625;47.072;22.192;2022-11-12T16:40:28;62.17;;;24.67;;
68633;SDS011;55625;47.072;22.192;2022-11-12T16:42:55;67.03;;;27.00;;
68633;SDS011;55625;47.072;22.192;2022-11-12T16:45:22;59.72;;;22.73;;
68633;SDS011;55625;47.072;22.192;2022-11-12T16:47:56;66.45;;;26.55;;
68633;SDS011;55625;47.072;22.192;2022-11-12T16:50:23;61.07;;;20.47;;
68633;SDS011;55625;47.072;22.192;2022-11-12T16:52:52;50.92;;;17.65;;
68633;SDS011;55625;47.072;22.192;2022-11-12T16:55:19;54.63;;;17.42;;
68633;SDS011;55625;47.072;22.192;2022-11-12T16:57:45;63.58;;;22.15;;
68633;SDS011;55625;47.072;22.192;2022-11-12T17:00:12;50.30;;;19.57;;
68633;SDS011;55625;47.072;22.192;2022-11-12T17:02:41;42.50;;;19.48;;